Safi, Morocco

8:13 AM WEST on October 21, 2014 (GMT +0100)
Mogador | Change Station
CLOSE
Current Station
Airport
Location: Essaouira,
Elevation: 8 m
Nearby Weather Stations

Elev 8 m 31.52 °N, 9.78 °W | Updated 13 minutes ago

Partly Cloudy
Partly Cloudy
24 °C
Feels Like 24 °C
N
15
Wind Variable Wind from ENE

Today
High -- | Low -- °C
--% Chance of Precip.
Yesterday
High -- | Low -- °C
Precip. -- mm
7:44 AM 6:57 PM
Waning Crescent, 7% visible
Pressure 1018 hPa
Visibility 6.0 kilometers
Clouds Few 914 m
Dew Point 1 °C
Humidity 22%
Rainfall 0.0 mm
Snow Depth Not available.
UV 0 out of 12
Pollen Not available.
Air Quality Not available.
Flu Activity Not available.
METAR GMMI 210700Z 06008KT 6000 FEW030 24/01 Q1018 NOSIG

More Conditions Fewer Conditions

Pressure 1018 hPa
Visibility 6.0 kilometers
Clouds Few 914 m
Dew Point 1 °C
Humidity 22%
Rainfall 0.0 mm
Snow Depth Not available.
UV 0 out of 12
Pollen Not available.
Air Quality Not available.
Flu Activity Not available.
METAR GMMI 210700Z 06008KT 6000 FEW030 24/01 Q1018 NOSIG

More Conditions Fewer Conditions

10-Day Weather Forecast

Almanac

Astronomy

Oct. 21, 2014 Rise Set
Actual Time 7:44 AM WEST 6:57 PM WEST
Civil Twilight 7:20 AM WEST 7:22 PM WEST
Nautical Twilight 6:51 AM WEST 7:51 PM WEST
Astronomical Twilight 6:22 AM WEST 8:19 PM WEST
Moon 5:24 AM WEST 5:38 PM WEST
Length of Visible Light 12h 02m
Length of Day
11h 12m
Tomorrow will be 1m 51s shorter.
Waning Crescent, 7% of the Moon is Illuminated
Today
Waning Crescent
Oct 23
New
Oct 30
First Quarter
Nov 6
Full
Nov 14
Last Quarter

Yesterday's Extremes

Country Highs Country Lows

Community

WunderPhotos

Upload Photos

1,763,619 photos uploaded!

Nearby

Snow Depth

Not available.

Earthquake Activity

City Distance Mag. Time & Date
No recent earthquake activity has been reported nearby.
Minimum magnitude displayed is 2.5.

Coastal Water Temperatures

Place Temperature
No Stations Reporting

Nearby Weather Stations